FIN1YB LKPR-EFHK
Flight info
| Callsign | FIN1YB |
|---|---|
| Flight time | 1h 51m |
| Altitude | 37000 |
| Route | ARTUP DCT TOMTI DCT DIMEX DCT RIVDI/N0447F360 DCT PENOR/N0454F370 DCT ALAMI DCT OKEVU DCT EVADI Y370 DIVAM |
| Aircraft | A321/M-SDE1E2E3FGHIJ1M1RWXYZ/LB1 |
Departure
| Time | 2026-04-25 08:26 |
|---|---|
| Airport | Václav Havel Airport Prague (LKPR) |
Arrival
| Time | 2026-04-25 10:17 |
|---|---|
| Airport | Helsinki Vantaa Airport (EFHK) |
| Time | Latitude | Longitude | Altitude | Speed | Heading |
|---|---|---|---|---|---|
| 2026-04-25 08:03 | 50.10442 | 14.26590 | 1174 ft | 0 kts | 34° |
| 2026-04-25 08:17 | 50.10440 | 14.26588 | 1174 ft | 1 kts | 34° |
| 2026-04-25 08:17 | 50.10428 | 14.26575 | 1171 ft | 2 kts | 36° |
| 2026-04-25 08:17 | 50.10415 | 14.26557 | 1169 ft | 3 kts | 69° |
| 2026-04-25 08:18 | 50.10412 | 14.26531 | 1170 ft | 3 kts | 110° |
| 2026-04-25 08:18 | 50.10420 | 14.26507 | 1170 ft | 1 kts | 124° |
| 2026-04-25 08:18 | 50.10421 | 14.26504 | 1170 ft | 0 kts | 124° |
| 2026-04-25 08:20 | 50.10417 | 14.26513 | 1169 ft | 2 kts | 124° |
| 2026-04-25 08:20 | 50.10404 | 14.26543 | 1170 ft | 4 kts | 124° |
| 2026-04-25 08:21 | 50.10382 | 14.26592 | 1171 ft | 6 kts | 124° |
| 2026-04-25 08:21 | 50.10352 | 14.26625 | 1173 ft | 4 kts | 200° |
| 2026-04-25 08:21 | 50.10319 | 14.26594 | 1172 ft | 8 kts | 212° |
| 2026-04-25 08:21 | 50.10248 | 14.26532 | 1176 ft | 13 kts | 192° |
| 2026-04-25 08:22 | 50.10192 | 14.26616 | 1177 ft | 14 kts | 127° |
| 2026-04-25 08:22 | 50.10120 | 14.26755 | 1183 ft | 18 kts | 129° |
| 2026-04-25 08:22 | 50.10047 | 14.26916 | 1192 ft | 18 kts | 123° |
| 2026-04-25 08:22 | 50.09969 | 14.27069 | 1198 ft | 19 kts | 130° |
| 2026-04-25 08:23 | 50.09886 | 14.27239 | 1202 ft | 21 kts | 126° |
| 2026-04-25 08:23 | 50.09781 | 14.27425 | 1205 ft | 25 kts | 136° |
| 2026-04-25 08:23 | 50.09650 | 14.27624 | 1209 ft | 28 kts | 136° |
| 2026-04-25 08:23 | 50.09509 | 14.27846 | 1214 ft | 30 kts | 135° |
| 2026-04-25 08:24 | 50.09362 | 14.28061 | 1214 ft | 23 kts | 135° |
| 2026-04-25 08:24 | 50.09277 | 14.28194 | 1214 ft | 17 kts | 133° |
| 2026-04-25 08:24 | 50.09178 | 14.28281 | 1211 ft | 16 kts | 182° |
| 2026-04-25 08:24 | 50.09084 | 14.28192 | 1210 ft | 17 kts | 229° |
| 2026-04-25 08:25 | 50.09101 | 14.28042 | 1209 ft | 16 kts | 307° |
| 2026-04-25 08:25 | 50.09183 | 14.27876 | 1211 ft | 40 kts | 307° |
| 2026-04-25 08:25 | 50.09507 | 14.27204 | 1206 ft | 113 kts | 307° |
| 2026-04-25 08:25 | 50.10094 | 14.25998 | 1345 ft | 154 kts | 306° |
| 2026-04-25 08:26 | 50.10770 | 14.24772 | 2172 ft | 150 kts | 322° |
| 2026-04-25 08:26 | 50.11822 | 14.24413 | 2780 ft | 171 kts | 2° |
| 2026-04-25 08:26 | 50.13081 | 14.24653 | 3197 ft | 193 kts | 4° |
| 2026-04-25 08:26 | 50.14490 | 14.24926 | 3484 ft | 215 kts | 3° |
| 2026-04-25 08:27 | 50.16072 | 14.25217 | 3772 ft | 241 kts | 4° |
| 2026-04-25 08:27 | 50.17796 | 14.25444 | 4375 ft | 252 kts | 354° |
| 2026-04-25 08:27 | 50.19501 | 14.24905 | 5202 ft | 255 kts | 343° |
| 2026-04-25 08:27 | 50.21225 | 14.24184 | 6072 ft | 258 kts | 342° |
| 2026-04-25 08:28 | 50.22989 | 14.23538 | 6905 ft | 264 kts | 352° |
| 2026-04-25 08:28 | 50.24834 | 14.23907 | 7695 ft | 275 kts | 17° |
| 2026-04-25 08:28 | 50.26438 | 14.25613 | 8501 ft | 288 kts | 45° |
| 2026-04-25 08:28 | 50.27604 | 14.28194 | 9313 ft | 293 kts | 52° |
| 2026-04-25 08:29 | 50.28734 | 14.30881 | 10128 ft | 297 kts | 52° |
| 2026-04-25 08:29 | 50.29906 | 14.33672 | 10498 ft | 317 kts | 52° |
| 2026-04-25 08:29 | 50.31158 | 14.36653 | 10749 ft | 339 kts | 53° |
| 2026-04-25 08:29 | 50.32459 | 14.39752 | 11301 ft | 348 kts | 53° |
| 2026-04-25 08:30 | 50.33792 | 14.42946 | 11990 ft | 353 kts | 53° |
| 2026-04-25 08:30 | 50.35141 | 14.46177 | 12692 ft | 357 kts | 53° |
| 2026-04-25 08:30 | 50.36509 | 14.49448 | 13418 ft | 361 kts | 53° |
| 2026-04-25 08:30 | 50.37896 | 14.52761 | 14096 ft | 365 kts | 53° |
| 2026-04-25 08:31 | 50.39298 | 14.56104 | 14714 ft | 369 kts | 53° |
| 2026-04-25 08:31 | 50.40726 | 14.59512 | 15348 ft | 374 kts | 53° |
| 2026-04-25 08:31 | 50.42184 | 14.62859 | 15961 ft | 376 kts | 48° |
| 2026-04-25 08:31 | 50.43969 | 14.65851 | 16585 ft | 376 kts | 37° |
| 2026-04-25 08:32 | 50.46081 | 14.68288 | 17216 ft | 375 kts | 27° |
| 2026-04-25 08:32 | 50.48291 | 14.70446 | 17853 ft | 379 kts | 27° |
| 2026-04-25 08:32 | 50.50536 | 14.72650 | 18460 ft | 383 kts | 27° |
| 2026-04-25 08:32 | 50.52808 | 14.74891 | 19014 ft | 387 kts | 27° |
| 2026-04-25 08:33 | 50.55098 | 14.77159 | 19564 ft | 390 kts | 27° |
| 2026-04-25 08:33 | 50.57409 | 14.79453 | 20124 ft | 394 kts | 27° |
| 2026-04-25 08:33 | 50.59736 | 14.81763 | 20685 ft | 397 kts | 27° |
| 2026-04-25 08:33 | 50.62088 | 14.84093 | 21251 ft | 401 kts | 27° |
| 2026-04-25 08:34 | 50.64456 | 14.86443 | 21816 ft | 404 kts | 27° |
| 2026-04-25 08:34 | 50.66813 | 14.88786 | 22359 ft | 408 kts | 27° |
| 2026-04-25 08:34 | 50.69147 | 14.91395 | 22883 ft | 416 kts | 35° |
| 2026-04-25 08:34 | 50.71315 | 14.94492 | 23406 ft | 422 kts | 37° |
| 2026-04-25 08:35 | 50.73490 | 14.97641 | 23868 ft | 425 kts | 37° |
| 2026-04-25 08:35 | 50.75680 | 15.00800 | 24290 ft | 428 kts | 37° |
| 2026-04-25 08:35 | 50.77897 | 15.03995 | 24695 ft | 432 kts | 37° |
| 2026-04-25 08:35 | 50.80120 | 15.07209 | 25109 ft | 435 kts | 37° |
| 2026-04-25 08:36 | 50.82340 | 15.10425 | 25524 ft | 438 kts | 37° |
| 2026-04-25 08:36 | 50.84598 | 15.13702 | 25938 ft | 442 kts | 37° |
| 2026-04-25 08:36 | 50.86873 | 15.17009 | 26344 ft | 445 kts | 36° |
| 2026-04-25 08:36 | 50.89161 | 15.20341 | 26743 ft | 448 kts | 36° |
| 2026-04-25 08:37 | 50.91464 | 15.23702 | 27132 ft | 451 kts | 36° |
| 2026-04-25 08:37 | 50.93765 | 15.27062 | 27520 ft | 454 kts | 36° |
| 2026-04-25 08:37 | 50.96158 | 15.30357 | 27893 ft | 453 kts | 31° |
| 2026-04-25 08:37 | 50.98675 | 15.33404 | 28265 ft | 456 kts | 30° |
| 2026-04-25 08:38 | 51.01212 | 15.36468 | 28649 ft | 459 kts | 30° |
| 2026-04-25 08:38 | 51.03759 | 15.39549 | 29011 ft | 462 kts | 30° |
| 2026-04-25 08:38 | 51.06323 | 15.42662 | 29394 ft | 465 kts | 30° |
| 2026-04-25 08:38 | 51.08872 | 15.45764 | 29723 ft | 468 kts | 30° |
| 2026-04-25 08:39 | 51.11464 | 15.48929 | 30056 ft | 471 kts | 29° |
| 2026-04-25 08:39 | 51.14078 | 15.52132 | 30366 ft | 474 kts | 30° |
| 2026-04-25 08:39 | 51.16696 | 15.55345 | 30680 ft | 476 kts | 30° |
| 2026-04-25 08:39 | 51.19293 | 15.58531 | 31001 ft | 478 kts | 30° |
| 2026-04-25 08:40 | 51.21939 | 15.61780 | 31341 ft | 480 kts | 30° |
| 2026-04-25 08:40 | 51.24572 | 15.65014 | 31787 ft | 478 kts | 30° |
| 2026-04-25 08:40 | 51.27213 | 15.68260 | 32245 ft | 477 kts | 30° |
| 2026-04-25 08:40 | 51.29842 | 15.71498 | 32697 ft | 475 kts | 30° |
| 2026-04-25 08:41 | 51.32462 | 15.74735 | 33131 ft | 474 kts | 30° |
| 2026-04-25 08:41 | 51.35063 | 15.77954 | 33569 ft | 473 kts | 30° |
| 2026-04-25 08:41 | 51.37667 | 15.81174 | 34003 ft | 472 kts | 30° |
| 2026-04-25 08:41 | 51.40231 | 15.84346 | 34375 ft | 471 kts | 30° |
| 2026-04-25 08:42 | 51.42816 | 15.87550 | 34738 ft | 470 kts | 30° |
| 2026-04-25 08:42 | 51.45400 | 15.90762 | 35087 ft | 468 kts | 30° |
| 2026-04-25 08:42 | 51.47974 | 15.93968 | 35447 ft | 467 kts | 30° |
| 2026-04-25 08:42 | 51.50537 | 15.97166 | 35809 ft | 466 kts | 30° |
| 2026-04-25 08:43 | 51.53103 | 16.00373 | 36154 ft | 465 kts | 31° |
| 2026-04-25 08:43 | 51.55658 | 16.03570 | 36508 ft | 464 kts | 31° |
| 2026-04-25 08:43 | 51.58175 | 16.06723 | 36840 ft | 463 kts | 31° |
| 2026-04-25 08:43 | 51.60811 | 16.09679 | 36990 ft | 456 kts | 23° |
| 2026-04-25 08:44 | 51.63616 | 16.11975 | 37005 ft | 447 kts | 15° |
| 2026-04-25 08:44 | 51.69503 | 16.14454 | 37004 ft | 432 kts | 1° |
| 2026-04-25 08:45 | 51.75419 | 16.15867 | 37001 ft | 432 kts | 1° |
| 2026-04-25 08:45 | 51.81382 | 16.17315 | 37000 ft | 433 kts | 2° |
| 2026-04-25 08:46 | 51.87344 | 16.18787 | 36997 ft | 433 kts | 2° |
| 2026-04-25 08:46 | 51.93274 | 16.20256 | 37003 ft | 433 kts | 2° |
| 2026-04-25 08:47 | 51.99244 | 16.21735 | 37008 ft | 434 kts | 3° |
| 2026-04-25 08:47 | 52.05216 | 16.23219 | 37012 ft | 434 kts | 3° |
| 2026-04-25 08:48 | 52.11193 | 16.24698 | 37009 ft | 434 kts | 3° |
| 2026-04-25 08:48 | 52.17168 | 16.26181 | 37008 ft | 434 kts | 3° |
| 2026-04-25 08:49 | 52.23148 | 16.27674 | 37010 ft | 434 kts | 3° |
| 2026-04-25 08:49 | 52.29092 | 16.29164 | 37006 ft | 434 kts | 3° |
| 2026-04-25 08:50 | 52.35065 | 16.30669 | 37004 ft | 434 kts | 3° |
| 2026-04-25 08:50 | 52.41032 | 16.32165 | 36998 ft | 433 kts | 3° |
| 2026-04-25 08:51 | 52.47001 | 16.33661 | 36995 ft | 433 kts | 3° |
| 2026-04-25 08:51 | 52.52922 | 16.35172 | 36994 ft | 433 kts | 4° |
| 2026-04-25 08:52 | 52.58893 | 16.36700 | 36995 ft | 433 kts | 3° |
| 2026-04-25 08:52 | 52.64852 | 16.38219 | 36994 ft | 432 kts | 3° |
| 2026-04-25 08:53 | 52.70762 | 16.39732 | 36991 ft | 432 kts | 3° |
| 2026-04-25 08:53 | 52.76701 | 16.41246 | 36983 ft | 431 kts | 3° |
| 2026-04-25 08:54 | 52.82643 | 16.42767 | 36981 ft | 431 kts | 3° |
| 2026-04-25 08:54 | 52.88571 | 16.44282 | 36976 ft | 431 kts | 3° |
| 2026-04-25 08:55 | 52.94494 | 16.45821 | 36972 ft | 431 kts | 3° |
| 2026-04-25 08:55 | 53.00412 | 16.47367 | 36964 ft | 430 kts | 2° |
| 2026-04-25 08:56 | 53.06329 | 16.48891 | 36965 ft | 430 kts | 2° |
| 2026-04-25 08:56 | 53.12206 | 16.50410 | 36962 ft | 430 kts | 2° |
| 2026-04-25 08:57 | 53.18123 | 16.51956 | 36954 ft | 430 kts | 2° |
| 2026-04-25 08:57 | 53.24041 | 16.53506 | 36950 ft | 430 kts | 2° |
| 2026-04-25 08:58 | 53.29962 | 16.55065 | 36947 ft | 431 kts | 2° |
| 2026-04-25 08:58 | 53.35854 | 16.56617 | 36942 ft | 431 kts | 2° |
| 2026-04-25 08:59 | 53.41791 | 16.58184 | 36930 ft | 431 kts | 2° |
| 2026-04-25 08:59 | 53.47728 | 16.59747 | 36936 ft | 432 kts | 2° |
| 2026-04-25 09:00 | 53.53677 | 16.61320 | 36930 ft | 432 kts | 2° |
| 2026-04-25 09:00 | 53.59591 | 16.62896 | 36929 ft | 433 kts | 2° |
| 2026-04-25 09:01 | 53.65536 | 16.64489 | 36932 ft | 433 kts | 2° |
| 2026-04-25 09:01 | 53.71496 | 16.66087 | 36927 ft | 433 kts | 2° |
| 2026-04-25 09:02 | 53.77430 | 16.67677 | 36920 ft | 433 kts | 2° |
| 2026-04-25 09:02 | 53.83394 | 16.69294 | 36920 ft | 433 kts | 2° |
| 2026-04-25 09:03 | 53.89328 | 16.70898 | 36923 ft | 433 kts | 2° |
| 2026-04-25 09:03 | 53.95294 | 16.72513 | 36916 ft | 434 kts | 2° |
| 2026-04-25 09:04 | 54.01257 | 16.74127 | 36909 ft | 433 kts | 2° |
| 2026-04-25 09:04 | 54.06223 | 16.75473 | 36908 ft | 434 kts | 2° |
| 2026-04-25 09:05 | 54.13149 | 16.77371 | 36900 ft | 433 kts | 2° |
| 2026-04-25 09:05 | 54.19115 | 16.78996 | 36893 ft | 433 kts | 2° |
| 2026-04-25 09:06 | 54.24064 | 16.80351 | 36890 ft | 433 kts | 2° |
| 2026-04-25 09:06 | 54.30018 | 16.81989 | 36883 ft | 433 kts | 2° |
| 2026-04-25 09:07 | 54.35983 | 16.83637 | 36878 ft | 433 kts | 2° |
| 2026-04-25 09:07 | 54.41940 | 16.85290 | 36871 ft | 433 kts | 3° |
| 2026-04-25 09:08 | 54.47857 | 16.86944 | 36871 ft | 433 kts | 3° |
| 2026-04-25 09:08 | 54.53801 | 16.88596 | 36857 ft | 432 kts | 3° |
| 2026-04-25 09:09 | 54.59746 | 16.90247 | 36852 ft | 432 kts | 2° |
| 2026-04-25 09:09 | 54.65693 | 16.91914 | 36843 ft | 433 kts | 3° |
| 2026-04-25 09:10 | 54.71604 | 16.93584 | 36837 ft | 433 kts | 2° |
| 2026-04-25 09:10 | 54.77557 | 16.95265 | 36835 ft | 433 kts | 2° |
| 2026-04-25 09:11 | 54.86476 | 16.97796 | 36825 ft | 433 kts | 2° |
| 2026-04-25 09:11 | 54.92448 | 16.99489 | 36818 ft | 434 kts | 2° |
| 2026-04-25 09:12 | 54.98375 | 17.01169 | 36810 ft | 434 kts | 2° |
| 2026-04-25 09:12 | 55.04348 | 17.02889 | 36804 ft | 434 kts | 2° |
| 2026-04-25 09:13 | 55.10312 | 17.04606 | 36798 ft | 434 kts | 2° |
| 2026-04-25 09:13 | 55.16229 | 17.06306 | 36787 ft | 434 kts | 2° |
| 2026-04-25 09:14 | 55.22201 | 17.07930 | 36780 ft | 432 kts | 0° |
| 2026-04-25 09:14 | 55.28179 | 17.09113 | 36769 ft | 430 kts | 359° |
| 2026-04-25 09:15 | 55.34108 | 17.10166 | 36765 ft | 430 kts | 359° |
| 2026-04-25 09:15 | 55.40071 | 17.11312 | 36741 ft | 431 kts | 359° |
| 2026-04-25 09:16 | 55.45998 | 17.12501 | 36750 ft | 430 kts | 359° |
| 2026-04-25 09:16 | 55.51948 | 17.13720 | 36745 ft | 431 kts | 360° |
| 2026-04-25 09:17 | 55.60886 | 17.15574 | 36730 ft | 433 kts | 2° |
| 2026-04-25 09:18 | 55.66706 | 17.18932 | 36725 ft | 450 kts | 21° |
| 2026-04-25 09:18 | 55.72207 | 17.24387 | 36717 ft | 453 kts | 22° |
| 2026-04-25 09:19 | 55.77672 | 17.29843 | 36712 ft | 453 kts | 22° |
| 2026-04-25 09:19 | 55.83184 | 17.35332 | 36707 ft | 453 kts | 22° |
| 2026-04-25 09:20 | 55.88699 | 17.40842 | 36703 ft | 454 kts | 22° |
| 2026-04-25 09:20 | 55.94187 | 17.46355 | 36689 ft | 454 kts | 22° |
| 2026-04-25 09:21 | 55.99681 | 17.51894 | 36685 ft | 455 kts | 22° |
| 2026-04-25 09:21 | 56.05188 | 17.57460 | 36684 ft | 455 kts | 22° |
| 2026-04-25 09:22 | 56.10712 | 17.63072 | 36682 ft | 456 kts | 22° |
| 2026-04-25 09:22 | 56.16204 | 17.68672 | 36673 ft | 456 kts | 22° |
| 2026-04-25 09:23 | 56.21730 | 17.74314 | 36667 ft | 457 kts | 22° |
| 2026-04-25 09:23 | 56.27255 | 17.79963 | 36664 ft | 457 kts | 22° |
| 2026-04-25 09:24 | 56.32793 | 17.85656 | 36657 ft | 458 kts | 23° |
| 2026-04-25 09:24 | 56.38323 | 17.91374 | 36651 ft | 458 kts | 23° |
| 2026-04-25 09:25 | 56.43838 | 17.97081 | 36650 ft | 459 kts | 23° |
| 2026-04-25 09:25 | 56.49378 | 18.02842 | 36644 ft | 459 kts | 23° |
| 2026-04-25 09:26 | 56.54890 | 18.08586 | 36640 ft | 459 kts | 23° |
| 2026-04-25 09:26 | 56.60435 | 18.14378 | 36642 ft | 460 kts | 23° |
| 2026-04-25 09:27 | 56.65984 | 18.20185 | 36637 ft | 460 kts | 24° |
| 2026-04-25 09:27 | 56.71528 | 18.26037 | 36631 ft | 460 kts | 24° |
| 2026-04-25 09:28 | 56.77078 | 18.31918 | 36621 ft | 461 kts | 24° |
| 2026-04-25 09:28 | 56.82629 | 18.37795 | 36617 ft | 461 kts | 24° |
| 2026-04-25 09:29 | 56.88152 | 18.43658 | 36616 ft | 462 kts | 24° |
| 2026-04-25 09:29 | 56.93706 | 18.49580 | 36615 ft | 462 kts | 24° |
| 2026-04-25 09:30 | 56.99280 | 18.55556 | 36615 ft | 463 kts | 24° |
| 2026-04-25 09:30 | 57.04838 | 18.61561 | 36612 ft | 463 kts | 24° |
| 2026-04-25 09:31 | 57.10415 | 18.67584 | 36611 ft | 464 kts | 24° |
| 2026-04-25 09:31 | 57.15949 | 18.73550 | 36604 ft | 464 kts | 24° |
| 2026-04-25 09:32 | 57.21515 | 18.79589 | 36599 ft | 464 kts | 24° |
| 2026-04-25 09:32 | 57.27082 | 18.85671 | 36593 ft | 465 kts | 24° |
| 2026-04-25 09:33 | 57.32661 | 18.91780 | 36589 ft | 466 kts | 24° |
| 2026-04-25 09:33 | 57.38239 | 18.97910 | 36585 ft | 466 kts | 24° |
| 2026-04-25 09:34 | 57.43790 | 19.04018 | 36580 ft | 466 kts | 24° |
| 2026-04-25 09:34 | 57.49381 | 19.10190 | 36586 ft | 467 kts | 24° |
| 2026-04-25 09:35 | 57.54969 | 19.16397 | 36591 ft | 468 kts | 25° |
| 2026-04-25 09:35 | 57.60520 | 19.22588 | 36589 ft | 468 kts | 25° |
| 2026-04-25 09:36 | 57.66114 | 19.28851 | 36590 ft | 468 kts | 25° |
| 2026-04-25 09:36 | 57.71708 | 19.35122 | 36587 ft | 468 kts | 25° |
| 2026-04-25 09:37 | 57.77259 | 19.41377 | 36589 ft | 468 kts | 25° |
| 2026-04-25 09:37 | 57.82844 | 19.47682 | 36588 ft | 468 kts | 25° |
| 2026-04-25 09:38 | 57.88436 | 19.54030 | 36589 ft | 469 kts | 25° |
| 2026-04-25 09:38 | 57.93990 | 19.60358 | 36586 ft | 469 kts | 25° |
| 2026-04-25 09:39 | 57.99563 | 19.66727 | 36586 ft | 468 kts | 25° |
| 2026-04-25 09:39 | 58.05138 | 19.73122 | 36587 ft | 468 kts | 25° |
| 2026-04-25 09:40 | 58.13448 | 19.82702 | 36583 ft | 467 kts | 25° |
| 2026-04-25 09:40 | 58.18998 | 19.89117 | 36583 ft | 467 kts | 25° |
| 2026-04-25 09:41 | 58.24543 | 19.95551 | 36580 ft | 466 kts | 26° |
| 2026-04-25 09:41 | 58.30085 | 20.02014 | 36580 ft | 466 kts | 26° |
| 2026-04-25 09:42 | 58.35574 | 20.08445 | 36569 ft | 466 kts | 26° |
| 2026-04-25 09:42 | 58.41094 | 20.14939 | 36571 ft | 465 kts | 26° |
| 2026-04-25 09:43 | 58.46608 | 20.21434 | 36574 ft | 465 kts | 26° |
| 2026-04-25 09:43 | 58.52111 | 20.27946 | 36565 ft | 465 kts | 26° |
| 2026-04-25 09:44 | 58.57584 | 20.34461 | 36563 ft | 465 kts | 26° |
| 2026-04-25 09:44 | 58.63078 | 20.41007 | 36564 ft | 465 kts | 26° |
| 2026-04-25 09:45 | 58.68573 | 20.47595 | 36558 ft | 465 kts | 26° |
| 2026-04-25 09:45 | 58.74068 | 20.54204 | 36557 ft | 465 kts | 26° |
| 2026-04-25 09:46 | 58.79557 | 20.60820 | 36551 ft | 465 kts | 27° |
| 2026-04-25 09:46 | 58.85015 | 20.67429 | 36555 ft | 465 kts | 27° |
| 2026-04-25 09:47 | 58.90505 | 20.74095 | 36548 ft | 465 kts | 27° |
| 2026-04-25 09:47 | 58.95993 | 20.80788 | 36554 ft | 466 kts | 27° |
| 2026-04-25 09:48 | 59.01429 | 20.87495 | 36555 ft | 467 kts | 30° |
| 2026-04-25 09:48 | 59.06174 | 20.96296 | 36538 ft | 478 kts | 50° |
| 2026-04-25 09:49 | 59.09737 | 21.07311 | 36534 ft | 482 kts | 55° |
| 2026-04-25 09:49 | 59.13235 | 21.18454 | 36531 ft | 482 kts | 55° |
| 2026-04-25 09:50 | 59.16730 | 21.29616 | 36531 ft | 482 kts | 56° |
| 2026-04-25 09:50 | 59.20197 | 21.40763 | 36533 ft | 483 kts | 56° |
| 2026-04-25 09:51 | 59.23674 | 21.52025 | 36527 ft | 483 kts | 56° |
| 2026-04-25 09:51 | 59.27131 | 21.63279 | 36523 ft | 482 kts | 56° |
| 2026-04-25 09:52 | 59.30580 | 21.74537 | 36519 ft | 482 kts | 56° |
| 2026-04-25 09:52 | 59.34015 | 21.85824 | 36514 ft | 482 kts | 56° |
| 2026-04-25 09:53 | 59.37425 | 21.97070 | 36301 ft | 482 kts | 57° |
| 2026-04-25 09:53 | 59.39142 | 22.02757 | 36053 ft | 482 kts | 57° |
| 2026-04-25 09:53 | 59.40849 | 22.08423 | 35805 ft | 482 kts | 57° |
| 2026-04-25 09:54 | 59.42559 | 22.14096 | 35566 ft | 483 kts | 57° |
| 2026-04-25 09:54 | 59.44270 | 22.19781 | 35324 ft | 483 kts | 57° |
| 2026-04-25 09:54 | 59.45962 | 22.25415 | 35090 ft | 484 kts | 57° |
| 2026-04-25 09:54 | 59.47677 | 22.31147 | 34857 ft | 485 kts | 57° |
| 2026-04-25 09:55 | 59.48805 | 22.34941 | 34686 ft | 485 kts | 57° |
| 2026-04-25 09:55 | 59.51100 | 22.42682 | 33688 ft | 493 kts | 57° |
| 2026-04-25 09:55 | 59.52235 | 22.46523 | 33433 ft | 491 kts | 57° |
| 2026-04-25 09:55 | 59.53959 | 22.52366 | 32858 ft | 489 kts | 57° |
| 2026-04-25 09:56 | 59.55660 | 22.58139 | 32349 ft | 485 kts | 57° |
| 2026-04-25 09:56 | 59.57355 | 22.63901 | 31841 ft | 482 kts | 57° |
| 2026-04-25 09:56 | 59.59024 | 22.69597 | 31335 ft | 478 kts | 57° |
| 2026-04-25 09:56 | 59.60661 | 22.75197 | 30825 ft | 475 kts | 57° |
| 2026-04-25 09:57 | 59.62317 | 22.80874 | 30314 ft | 473 kts | 57° |
| 2026-04-25 09:57 | 59.63955 | 22.86491 | 29811 ft | 470 kts | 57° |
| 2026-04-25 09:57 | 59.65580 | 22.92082 | 29265 ft | 467 kts | 57° |
| 2026-04-25 09:57 | 59.67186 | 22.97637 | 28758 ft | 462 kts | 57° |
| 2026-04-25 09:58 | 59.68750 | 23.03060 | 28285 ft | 457 kts | 57° |
| 2026-04-25 09:58 | 59.70319 | 23.08503 | 27817 ft | 452 kts | 58° |
| 2026-04-25 09:58 | 59.71865 | 23.13870 | 27473 ft | 444 kts | 58° |
| 2026-04-25 09:58 | 59.73385 | 23.19162 | 27183 ft | 438 kts | 58° |
| 2026-04-25 09:59 | 59.74890 | 23.24402 | 26824 ft | 435 kts | 58° |
| 2026-04-25 09:59 | 59.76385 | 23.29610 | 26333 ft | 432 kts | 58° |
| 2026-04-25 09:59 | 59.77850 | 23.34724 | 25883 ft | 430 kts | 58° |
| 2026-04-25 09:59 | 59.79333 | 23.39918 | 25420 ft | 428 kts | 58° |
| 2026-04-25 10:00 | 59.80795 | 23.45054 | 24963 ft | 426 kts | 59° |
| 2026-04-25 10:00 | 59.82250 | 23.50191 | 24508 ft | 425 kts | 59° |
| 2026-04-25 10:00 | 59.83694 | 23.55303 | 24084 ft | 423 kts | 59° |
| 2026-04-25 10:00 | 59.85116 | 23.60341 | 23679 ft | 420 kts | 59° |
| 2026-04-25 10:01 | 59.86542 | 23.65402 | 23267 ft | 418 kts | 59° |
| 2026-04-25 10:01 | 59.87957 | 23.70436 | 22802 ft | 416 kts | 59° |
| 2026-04-25 10:01 | 59.89359 | 23.75456 | 22366 ft | 412 kts | 59° |
| 2026-04-25 10:01 | 59.90738 | 23.80411 | 22144 ft | 402 kts | 60° |
| 2026-04-25 10:02 | 59.91934 | 23.85373 | 21905 ft | 393 kts | 66° |
| 2026-04-25 10:02 | 59.93002 | 23.90395 | 21367 ft | 393 kts | 66° |
| 2026-04-25 10:02 | 59.94051 | 23.95314 | 21026 ft | 388 kts | 66° |
| 2026-04-25 10:02 | 59.95110 | 24.00284 | 20554 ft | 386 kts | 66° |
| 2026-04-25 10:03 | 59.96161 | 24.05232 | 20113 ft | 384 kts | 66° |
| 2026-04-25 10:03 | 59.97198 | 24.10124 | 19689 ft | 381 kts | 66° |
| 2026-04-25 10:03 | 59.98217 | 24.14951 | 19275 ft | 379 kts | 66° |
| 2026-04-25 10:03 | 59.99236 | 24.19796 | 18849 ft | 377 kts | 67° |
| 2026-04-25 10:04 | 60.00247 | 24.24627 | 18422 ft | 375 kts | 67° |
| 2026-04-25 10:04 | 60.01249 | 24.29433 | 18026 ft | 372 kts | 66° |
| 2026-04-25 10:04 | 60.02231 | 24.34138 | 17625 ft | 370 kts | 67° |
| 2026-04-25 10:04 | 60.03222 | 24.38877 | 17178 ft | 368 kts | 66° |
| 2026-04-25 10:05 | 60.04209 | 24.43597 | 16757 ft | 365 kts | 66° |
| 2026-04-25 10:05 | 60.05183 | 24.48264 | 16351 ft | 362 kts | 66° |
| 2026-04-25 10:05 | 60.06146 | 24.52896 | 15948 ft | 359 kts | 66° |
| 2026-04-25 10:05 | 60.07098 | 24.57506 | 15535 ft | 356 kts | 67° |
| 2026-04-25 10:06 | 60.08038 | 24.62080 | 15135 ft | 354 kts | 66° |
| 2026-04-25 10:06 | 60.08960 | 24.66572 | 14751 ft | 351 kts | 67° |
| 2026-04-25 10:06 | 60.09945 | 24.71045 | 14352 ft | 347 kts | 59° |
| 2026-04-25 10:06 | 60.11304 | 24.74985 | 13971 ft | 342 kts | 45° |
| 2026-04-25 10:07 | 60.12912 | 24.78483 | 13586 ft | 339 kts | 44° |
| 2026-04-25 10:07 | 60.14513 | 24.81951 | 13204 ft | 337 kts | 44° |
| 2026-04-25 10:07 | 60.16080 | 24.85357 | 12814 ft | 335 kts | 44° |
| 2026-04-25 10:07 | 60.17655 | 24.88787 | 12442 ft | 332 kts | 44° |
| 2026-04-25 10:08 | 60.19223 | 24.92211 | 11959 ft | 334 kts | 44° |
| 2026-04-25 10:08 | 60.20803 | 24.95670 | 11392 ft | 337 kts | 44° |
| 2026-04-25 10:08 | 60.22391 | 24.99158 | 10851 ft | 339 kts | 44° |
| 2026-04-25 10:08 | 60.23985 | 25.02671 | 10303 ft | 340 kts | 44° |
| 2026-04-25 10:09 | 60.25561 | 25.06148 | 9783 ft | 340 kts | 44° |
| 2026-04-25 10:09 | 60.27149 | 25.09658 | 9188 ft | 335 kts | 45° |
| 2026-04-25 10:09 | 60.28680 | 25.13054 | 8537 ft | 319 kts | 45° |
| 2026-04-25 10:09 | 60.30144 | 25.16308 | 7896 ft | 307 kts | 44° |
| 2026-04-25 10:10 | 60.31555 | 25.19445 | 7254 ft | 296 kts | 44° |
| 2026-04-25 10:10 | 60.32919 | 25.22484 | 6634 ft | 288 kts | 45° |
| 2026-04-25 10:10 | 60.34248 | 25.25443 | 6034 ft | 280 kts | 44° |
| 2026-04-25 10:10 | 60.35527 | 25.28286 | 5414 ft | 274 kts | 45° |
| 2026-04-25 10:11 | 60.36799 | 25.31117 | 4764 ft | 269 kts | 45° |
| 2026-04-25 10:11 | 60.38056 | 25.33854 | 4271 ft | 257 kts | 38° |
| 2026-04-25 10:11 | 60.39546 | 25.35512 | 4149 ft | 238 kts | 8° |
| 2026-04-25 10:11 | 60.41139 | 25.35529 | 4014 ft | 225 kts | 341° |
| 2026-04-25 10:12 | 60.42497 | 25.34100 | 3871 ft | 219 kts | 316° |
| 2026-04-25 10:12 | 60.43631 | 25.32013 | 3737 ft | 220 kts | 315° |
| 2026-04-25 10:12 | 60.45437 | 25.27246 | 3471 ft | 212 kts | 274° |
| 2026-04-25 10:13 | 60.45048 | 25.24539 | 3339 ft | 205 kts | 234° |
| 2026-04-25 10:13 | 60.44120 | 25.22432 | 3238 ft | 195 kts | 230° |
| 2026-04-25 10:13 | 60.43217 | 25.20429 | 3120 ft | 194 kts | 231° |
| 2026-04-25 10:13 | 60.42290 | 25.18365 | 2891 ft | 201 kts | 231° |
| 2026-04-25 10:14 | 60.41356 | 25.16287 | 2586 ft | 194 kts | 231° |
| 2026-04-25 10:14 | 60.40476 | 25.14333 | 2336 ft | 184 kts | 231° |
| 2026-04-25 10:14 | 60.39635 | 25.12463 | 2081 ft | 176 kts | 231° |
| 2026-04-25 10:14 | 60.38856 | 25.10738 | 1861 ft | 157 kts | 232° |
| 2026-04-25 10:15 | 60.38141 | 25.09148 | 1640 ft | 146 kts | 232° |
| 2026-04-25 10:15 | 60.37485 | 25.07693 | 1437 ft | 138 kts | 232° |
| 2026-04-25 10:15 | 60.36845 | 25.06272 | 1261 ft | 136 kts | 232° |
| 2026-04-25 10:15 | 60.36214 | 25.04874 | 1062 ft | 133 kts | 231° |
| 2026-04-25 10:16 | 60.35593 | 25.03497 | 897 ft | 133 kts | 231° |
| 2026-04-25 10:16 | 60.34973 | 25.02125 | 732 ft | 131 kts | 231° |
| 2026-04-25 10:16 | 60.34353 | 25.00755 | 571 ft | 132 kts | 229° |
| 2026-04-25 10:16 | 60.33735 | 24.99388 | 393 ft | 131 kts | 230° |
| 2026-04-25 10:17 | 60.33123 | 24.98034 | 217 ft | 130 kts | 229° |
| 2026-04-25 10:17 | 60.32573 | 24.96813 | 174 ft | 103 kts | 226° |
| 2026-04-25 10:17 | 60.32202 | 24.95998 | 177 ft | 54 kts | 227° |
| 2026-04-25 10:17 | 60.31994 | 24.95685 | 173 ft | 32 kts | 200° |
| 2026-04-25 10:18 | 60.31845 | 24.95598 | 170 ft | 14 kts | 174° |
| 2026-04-25 10:18 | 60.31832 | 24.95742 | 169 ft | 13 kts | 54° |
| 2026-04-25 10:18 | 60.31900 | 24.95891 | 170 ft | 15 kts | 44° |
| 2026-04-25 10:18 | 60.31905 | 24.96066 | 167 ft | 15 kts | 125° |
| 2026-04-25 10:19 | 60.31853 | 24.96258 | 167 ft | 17 kts | 90° |
| 2026-04-25 10:19 | 60.31918 | 24.96464 | 167 ft | 19 kts | 47° |
| 2026-04-25 10:19 | 60.31973 | 24.96591 | 167 ft | 5 kts | 73° |
| 2026-04-25 10:19 | 60.31956 | 24.96657 | 167 ft | 6 kts | 133° |
| 2026-04-25 10:20 | 60.31950 | 24.96670 | 167 ft | 3 kts | 134° |
| 2026-04-25 10:20 | 60.31945 | 24.96679 | 167 ft | 1 kts | 135° |
| 2026-04-25 10:20 | 60.31945 | 24.96680 | 167 ft | 0 kts | 135° |